Yuba City, CA (95991)

4:02 PM PDT en Agosto 27, 2014 (GMT -0700)
Arboga, CA | Change Station
CLOSE
Current Station
Estación meteorológica personal
Location: Olivehurst, CA
Altura: 49 ft
Estaciones meteorológicas cercanas

Alt 49 ft 39.05 °N, 121.58 °W | Updated 5 minutes ago

Despejado
Despejado
92.8 ° F
Sensación térmica 91 ° F
N
3.2
Viento Variable Viento desde SSE

Hoy
Alta -- | Baja -- ° F
--% Posibilidad de precipitaciones
Ayer
Alta -- | Baja -- ° F
Precip. -- pul
6:30 AM 7:44 PM
Creciente, 5% visible
Presión 29.96 pul
Visibilidad 10.0 Millas
Nubes Despejado
Índice de calor 91 ° F
Punto de rocío 56 ° F
Humedad 29%
Precipitaciones 0.00 pul
Espesor de la nieve No disponible.
UV 6 de una escala de 12
Polen 8.60 de una escala de 12
Ozono Moderada
Flu Activity No disponible.
METAR KMYV 272253Z AUTO VRB04KT 10SM CLR 34/09 A2995 RMK AO2 SLP143 T03440089

More Conditions Fewer Conditions

Presión 29.96 pul
Visibilidad 10.0 Millas
Nubes Despejado
Índice de calor 91 ° F
Punto de rocío 56 ° F
Humedad 29%
Precipitaciones 0.00 pul
Espesor de la nieve No disponible.
UV 6 de una escala de 12
Polen 8.60 de una escala de 12
Ozono Moderada
Flu Activity No disponible.
METAR KMYV 272253Z AUTO VRB04KT 10SM CLR 34/09 A2995 RMK AO2 SLP143 T03440089

More Conditions Fewer Conditions

10-Day Weather Forecast

Almanac

Astronomía

Aug. 27, 2014 Salida Puesta
Hora real 6:30 AM PDT 7:44 PM PDT
Crepúsculo civil 6:03 AM PDT 8:11 PM PDT
Crepúsculo náutico 5:30 AM PDT 8:44 PM PDT
Crepúsculo astronómico 4:55 AM PDT 9:19 PM PDT
Luna 8:30 AM PDT 8:40 PM PDT
Horas de luz 14h 08m
Horas de luz
13h 13m
Tomorrow will be 2m 24s shorter.
Creciente, 5% of the Moon is Illuminated
Hoy
Creciente
Sep 2
Cuarto creciente
Sep 8
Luna llena
Sep 15
Cuarto menguante
Sep 24
Nueva

Extremos de hoy

Máximos del estado Bajos del estado

Community

WunderPhotos

Upload Photos

1,747,814 ¡fotos cargadas!

Nearby

Calidad del aire

  Calidad del aire Índice AQ Contaminante
Ayer Moderada
OZONE
Real Moderada
OZONE
Miércoles Moderada
OZONE
Jueves Moderada
OZONE
Viernes Moderada
OZONE
Sábado Moderada
OZONE

Grosos de nieve

Estación Profundido Altura
CSS Lab 1 in 6900 ft
Fallen Leaf 0 in 6300 ft
Hagan's Meadow 0 in 8000 ft
Leavitt Meadows 0 in 7200 ft
Adin Mountain 0 in 6200 ft

Actividad de terremotos

Ciudad Distance Mag. Tiempo y dato
Napa, California 65 Millas 2.6 11:57 AM PDT
2014-08-27
The Geysers, California 66 Millas 2.6 7:42 AM PDT
2014-08-27
Napa, California 65 Millas 2.5 10:56 AM PDT
2014-08-26
Napa, California 65 Millas 3.0 6:45 AM PDT
2014-08-26
Magnitud mínima muestra es 2,5.

Temperaturas de aguas costeras

Lugar Temperatura
Sin partes meteorológicos de las estaciones

Estaciones meteorológicas cercanas